createdAt,value
2023-03-24T00:02:22.919Z,97.60
2023-03-24T00:04:50.158Z,97.50
2023-03-24T00:07:16.417Z,97.50
2023-03-24T00:09:43.856Z,97.60
2023-03-24T00:12:11.620Z,97.90
2023-03-24T00:14:38.399Z,98.10
2023-03-24T00:17:06.149Z,97.70
2023-03-24T00:19:33.861Z,98.20
2023-03-24T00:22:00.411Z,98.00
2023-03-24T00:24:27.157Z,98.10
2023-03-24T00:26:57.179Z,98.40
2023-03-24T00:29:24.724Z,98.50
2023-03-24T00:31:53.165Z,98.60
2023-03-24T00:34:21.039Z,98.80
2023-03-24T00:36:48.506Z,98.50
2023-03-24T00:39:17.678Z,98.50
2023-03-24T00:41:45.885Z,98.20
2023-03-24T00:44:17.828Z,98.10
2023-03-24T00:46:55.393Z,97.60
2023-03-24T00:49:42.479Z,98.00
2023-03-24T00:52:13.532Z,98.10
2023-03-24T00:54:39.955Z,97.70
2023-03-24T00:57:07.838Z,97.40
2023-03-24T00:59:41.835Z,97.00
2023-03-24T01:02:11.696Z,96.60
2023-03-24T01:04:38.962Z,96.20
2023-03-24T01:07:07.639Z,96.10
2023-03-24T01:09:36.059Z,96.00
2023-03-24T01:12:06.831Z,96.00
2023-03-24T01:14:33.101Z,96.00
2023-03-24T01:17:00.174Z,95.80
2023-03-24T01:19:26.423Z,95.90
2023-03-24T01:21:53.847Z,96.00
2023-03-24T01:24:22.029Z,96.10
2023-03-24T01:26:49.569Z,96.20
2023-03-24T01:29:16.014Z,96.40
2023-03-24T01:31:42.554Z,96.50
2023-03-24T01:34:09.082Z,96.40
2023-03-24T01:36:35.348Z,96.20
2023-03-24T01:39:02.059Z,96.20
2023-03-24T01:41:34.557Z,96.10
2023-03-24T01:44:01.164Z,95.90
2023-03-24T01:46:29.199Z,95.70
2023-03-24T01:49:04.146Z,96.20
2023-03-24T01:51:42.411Z,96.10
2023-03-24T01:54:32.080Z,95.80
2023-03-24T01:57:05.954Z,95.90
2023-03-24T01:59:34.608Z,96.00
2023-03-24T02:02:04.013Z,95.30
2023-03-24T02:04:40.294Z,94.00
2023-03-24T02:07:19.152Z,93.70
2023-03-24T02:09:45.872Z,93.50
2023-03-24T02:12:13.088Z,93.00
2023-03-24T02:14:40.187Z,92.70
2023-03-24T02:18:47.216Z,92.20
2023-03-24T02:24:32.099Z,92.20
2023-03-24T02:27:21.357Z,92.20
2023-03-24T02:31:40.404Z,92.30
2023-03-24T02:35:27.512Z,92.20
2023-03-24T02:38:18.139Z,92.60
2023-03-24T02:40:48.151Z,93.00
2023-03-24T02:44:26.342Z,92.60
2023-03-24T02:47:03.011Z,92.60
2023-03-24T02:49:53.539Z,91.80
2023-03-24T02:54:58.877Z,92.10
2023-03-24T02:58:04.862Z,91.90
2023-03-24T03:00:49.835Z,92.20
2023-03-24T03:04:21.789Z,91.80
2023-03-24T03:06:51.915Z,92.20
2023-03-24T03:09:19.533Z,92.30
2023-03-24T03:11:50.921Z,92.90
2023-03-24T03:15:12.497Z,93.40
2023-03-24T03:17:48.044Z,93.10
2023-03-24T03:20:18.525Z,93.80
2023-03-24T03:23:06.720Z,94.20
2023-03-24T03:25:42.109Z,94.70
2023-03-24T03:28:08.349Z,94.20
2023-03-24T03:30:42.939Z,94.80
2023-03-24T03:33:56.139Z,94.70
2023-03-24T03:37:59.271Z,94.80
2023-03-24T03:40:40.800Z,94.80
2023-03-24T03:43:07.556Z,95.10
2023-03-24T03:45:34.112Z,95.20
2023-03-24T03:48:00.949Z,95.30
2023-03-24T03:50:27.701Z,95.10
2023-03-24T03:52:54.244Z,95.00
2023-03-24T03:55:20.653Z,95.50
2023-03-24T03:57:46.846Z,95.50
2023-03-24T04:00:19.214Z,95.00
2023-03-24T04:06:02.379Z,95.00
2023-03-24T04:10:28.701Z,94.90
2023-03-24T04:16:54.142Z,95.10
2023-03-24T04:20:49.378Z,94.90
2023-03-24T04:23:29.510Z,95.10
2023-03-24T04:26:25.657Z,95.00
2023-03-24T04:30:31.424Z,95.00
2023-03-24T04:33:05.297Z,94.90
2023-03-24T04:35:41.112Z,95.00
2023-03-24T04:38:14.290Z,94.60
2023-03-24T04:40:41.842Z,94.50
2023-03-24T04:43:09.811Z,94.80
2023-03-24T04:45:35.960Z,95.00
2023-03-24T04:48:03.843Z,95.10
2023-03-24T04:50:33.757Z,95.20
2023-03-24T04:53:00.522Z,95.00
2023-03-24T05:02:16.248Z,94.90
2023-03-24T05:04:42.394Z,94.80
2023-03-24T05:07:08.838Z,95.00
2023-03-24T05:09:35.689Z,94.60
2023-03-24T05:12:02.096Z,94.60
2023-03-24T05:14:28.549Z,94.30
2023-03-24T05:16:56.283Z,93.80
2023-03-24T05:19:23.103Z,93.80
2023-03-24T05:21:49.897Z,94.00
2023-03-24T05:24:16.108Z,94.10
2023-03-24T05:26:42.240Z,94.10
2023-03-24T05:29:08.529Z,94.20
2023-03-24T05:31:35.492Z,94.10
2023-03-24T05:34:01.759Z,94.10
2023-03-24T05:36:27.919Z,94.40
2023-03-24T05:38:54.134Z,94.10
2023-03-24T05:41:20.271Z,93.50
2023-03-24T05:43:46.660Z,93.80
2023-03-24T05:46:13.909Z,93.90
2023-03-24T05:48:40.067Z,93.80
2023-03-24T05:51:07.381Z,93.70
2023-03-24T05:53:33.649Z,93.30
2023-03-24T05:55:59.791Z,93.40
2023-03-24T05:58:26.149Z,92.80
2023-03-24T06:00:54.740Z,92.80
2023-03-24T06:03:21.296Z,92.60
2023-03-24T06:05:49.077Z,92.40
2023-03-24T06:08:16.367Z,92.60
2023-03-24T06:10:43.108Z,92.50
2023-03-24T06:13:09.519Z,92.60
2023-03-24T06:15:38.872Z,92.50
2023-03-24T06:18:05.591Z,92.70
2023-03-24T06:20:32.149Z,92.40
2023-03-24T06:22:59.570Z,92.10
2023-03-24T06:25:28.025Z,91.90
2023-03-24T06:27:54.166Z,92.20
2023-03-24T06:30:20.533Z,91.80
2023-03-24T06:32:47.033Z,91.20
2023-03-24T06:35:16.874Z,91.30
2023-03-24T06:37:43.065Z,91.50
2023-03-24T06:40:13.484Z,91.70
2023-03-24T06:42:39.666Z,91.10
2023-03-24T06:45:07.662Z,91.50
2023-03-24T06:47:33.902Z,91.60
2023-03-24T06:50:00.107Z,91.50
2023-03-24T06:52:27.402Z,91.20
2023-03-24T06:54:54.757Z,91.40
2023-03-24T06:57:21.171Z,91.30
2023-03-24T06:59:49.089Z,90.40
2023-03-24T07:02:17.058Z,90.10
2023-03-24T07:04:49.836Z,90.10
2023-03-24T07:07:44.713Z,90.30
2023-03-24T07:10:35.229Z,90.10
2023-03-24T07:13:02.778Z,90.60
2023-03-24T07:15:29.872Z,91.00
2023-03-24T07:17:56.219Z,91.10
2023-03-24T07:20:23.421Z,91.40
2023-03-24T07:22:49.598Z,91.20
2023-03-24T07:25:19.758Z,91.70
2023-03-24T07:27:46.382Z,91.60
2023-03-24T07:30:13.516Z,91.80
2023-03-24T07:32:40.677Z,92.00
2023-03-24T07:35:08.153Z,91.40
2023-03-24T07:37:34.900Z,91.50
2023-03-24T07:40:01.731Z,91.90
2023-03-24T07:42:28.118Z,92.70
2023-03-24T07:44:54.346Z,92.90
2023-03-24T07:47:20.579Z,92.20
2023-03-24T07:49:46.744Z,93.20
2023-03-24T07:52:13.104Z,93.40
2023-03-24T07:54:39.506Z,93.60
2023-03-24T07:57:06.501Z,93.80
2023-03-24T07:59:35.319Z,94.50
2023-03-24T08:02:03.237Z,94.50
2023-03-24T08:04:32.725Z,94.40
2023-03-24T08:06:59.549Z,95.10
2023-03-24T08:09:27.247Z,95.20
2023-03-24T08:11:53.457Z,95.00
2023-03-24T08:14:19.976Z,95.50
2023-03-24T08:16:46.248Z,95.10
2023-03-24T08:19:13.115Z,95.50
2023-03-24T08:21:40.225Z,95.20
2023-03-24T08:24:07.546Z,95.20
2023-03-24T08:26:34.699Z,95.40
2023-03-24T08:29:01.127Z,95.30
2023-03-24T08:31:36.709Z,95.60
2023-03-24T08:34:03.894Z,95.30
2023-03-24T08:36:30.198Z,94.00
2023-03-24T08:38:56.392Z,93.10
2023-03-24T08:41:36.122Z,92.70
2023-03-24T08:44:07.301Z,92.10
2023-03-24T08:46:34.203Z,91.30
2023-03-24T08:49:00.855Z,86.90
2023-03-24T08:51:27.173Z,85.20
2023-03-24T08:53:53.657Z,81.80
2023-03-24T08:56:19.883Z,79.60
2023-03-24T08:58:49.112Z,80.10
2023-03-24T09:01:15.616Z,79.10
2023-03-24T09:03:41.878Z,78.40
2023-03-24T09:06:11.046Z,80.30
2023-03-24T09:08:38.152Z,81.00
2023-03-24T09:11:05.370Z,81.40
2023-03-24T09:13:31.574Z,82.20
2023-03-24T09:16:01.235Z,81.80
2023-03-24T09:18:28.387Z,82.10
2023-03-24T09:20:54.803Z,81.00
2023-03-24T09:23:21.900Z,81.00
2023-03-24T09:25:52.037Z,82.50
2023-03-24T09:28:18.403Z,81.00
2023-03-24T09:30:45.216Z,82.60
2023-03-24T09:33:11.877Z,81.80
2023-03-24T09:35:39.888Z,82.30
2023-03-24T09:38:07.408Z,82.70
2023-03-24T09:40:36.713Z,81.10
2023-03-24T09:43:23.355Z,80.50
2023-03-24T09:45:55.130Z,81.40
2023-03-24T09:48:49.345Z,81.10
2023-03-24T09:51:22.104Z,80.50
2023-03-24T09:55:40.380Z,79.40
2023-03-24T09:58:08.268Z,79.20
2023-03-24T10:00:35.830Z,78.60
2023-03-24T10:03:14.395Z,77.50
2023-03-24T10:06:26.437Z,76.70
2023-03-24T10:09:12.005Z,77.10
2023-03-24T10:13:03.813Z,78.60
2023-03-24T10:15:38.269Z,77.60
2023-03-24T10:18:43.214Z,77.00
2023-03-24T10:21:25.636Z,77.60
2023-03-24T10:24:03.783Z,77.20
2023-03-24T10:29:46.046Z,76.80
2023-03-24T10:32:16.188Z,75.90
2023-03-24T10:34:43.909Z,74.00
2023-03-24T10:37:10.918Z,68.90
2023-03-24T10:39:44.014Z,67.50
2023-03-24T10:42:25.194Z,67.20
2023-03-24T10:44:52.364Z,64.40
2023-03-24T10:47:30.132Z,65.40
2023-03-24T10:50:11.951Z,65.10
2023-03-24T10:52:42.717Z,66.90
2023-03-24T10:55:17.538Z,63.20
2023-03-24T10:57:44.914Z,60.50
2023-03-24T11:00:23.461Z,59.50
2023-03-24T11:02:59.205Z,60.00
2023-03-24T11:05:30.069Z,59.50
2023-03-24T11:08:12.131Z,60.20
2023-03-24T11:10:38.626Z,61.10
2023-03-24T11:13:07.581Z,61.30
2023-03-24T11:15:35.590Z,61.80
2023-03-24T11:18:16.047Z,62.60
2023-03-24T11:21:42.888Z,63.40
2023-03-24T11:24:11.511Z,63.60
2023-03-24T11:26:38.898Z,63.30
2023-03-24T11:29:07.744Z,62.60
2023-03-24T11:31:37.703Z,63.90
2023-03-24T11:34:16.956Z,63.10
2023-03-24T11:37:01.894Z,62.40
2023-03-24T11:39:31.207Z,63.60
2023-03-24T11:42:16.654Z,63.90
2023-03-24T11:44:48.785Z,64.30
2023-03-24T11:47:37.487Z,63.40
2023-03-24T11:50:18.006Z,64.20
2023-03-24T11:52:52.334Z,66.40
2023-03-24T11:55:32.356Z,67.50
2023-03-24T12:01:10.413Z,69.30
2023-03-24T12:10:41.265Z,67.60
2023-03-24T12:13:50.111Z,66.40
2023-03-24T12:17:41.964Z,67.00
2023-03-24T12:23:42.881Z,67.10
2023-03-24T12:26:21.831Z,67.30
2023-03-24T12:30:14.526Z,66.50
2023-03-24T12:33:03.711Z,67.30
2023-03-24T12:37:11.041Z,67.30
2023-03-24T12:43:13.089Z,69.50
2023-03-24T12:45:51.907Z,70.30
2023-03-24T12:48:46.974Z,70.40
2023-03-24T12:52:58.151Z,70.20
2023-03-24T12:55:40.731Z,70.00
2023-03-24T13:04:57.232Z,71.30
2023-03-24T13:07:25.554Z,71.40
2023-03-24T13:10:32.811Z,71.90
2023-03-24T13:13:20.706Z,71.30
2023-03-24T13:16:30.851Z,72.90
2023-03-24T13:18:59.518Z,74.70
2023-03-24T13:21:27.993Z,75.90
2023-03-24T13:24:10.185Z,75.40
2023-03-24T13:27:16.093Z,75.70
2023-03-24T13:31:13.648Z,76.30
2023-03-24T13:33:40.680Z,76.10
2023-03-24T13:36:31.475Z,77.60
2023-03-24T13:39:00.189Z,77.80
2023-03-24T13:41:26.883Z,78.80
2023-03-24T13:44:08.602Z,78.60
2023-03-24T13:46:40.760Z,78.50
2023-03-24T13:49:11.832Z,78.70
2023-03-24T13:51:43.306Z,78.90
2023-03-24T13:54:17.491Z,78.50
2023-03-24T13:57:05.899Z,78.80
2023-03-24T13:59:58.667Z,79.60
2023-03-24T14:04:13.770Z,79.30
2023-03-24T14:06:54.291Z,78.80
2023-03-24T14:09:25.660Z,80.30
2023-03-24T14:12:17.077Z,80.80
2023-03-24T14:15:03.120Z,80.40
2023-03-24T14:17:30.846Z,82.50
2023-03-24T14:21:20.835Z,81.00
2023-03-24T14:23:48.693Z,81.00
2023-03-24T14:26:36.363Z,81.30
2023-03-24T14:29:03.453Z,77.90
2023-03-24T14:31:31.214Z,76.70
2023-03-24T14:35:05.270Z,76.50
2023-03-24T14:37:31.983Z,77.40
2023-03-24T14:40:01.588Z,76.50
2023-03-24T14:43:17.816Z,76.50
2023-03-24T14:46:47.305Z,75.60
2023-03-24T14:53:21.804Z,74.90
2023-03-24T14:55:48.598Z,74.20
2023-03-24T14:58:36.215Z,74.30
2023-03-24T15:01:06.936Z,74.80
2023-03-24T15:03:48.916Z,73.40
2023-03-24T15:06:19.174Z,72.40
2023-03-24T15:08:58.577Z,71.80
2023-03-24T15:11:32.369Z,71.10
2023-03-24T15:14:02.361Z,70.80
2023-03-24T15:16:30.317Z,71.20
2023-03-24T15:19:39.223Z,70.80
2023-03-24T15:22:08.272Z,71.20
2023-03-24T15:24:36.260Z,72.00
2023-03-24T15:27:51.575Z,71.80
2023-03-24T15:30:19.147Z,70.40
2023-03-24T15:32:49.621Z,70.60
2023-03-24T15:35:22.361Z,69.90
2023-03-24T15:37:53.365Z,69.50
2023-03-24T15:41:03.412Z,69.70
2023-03-24T15:43:30.531Z,69.80
2023-03-24T15:46:11.214Z,70.00
2023-03-24T15:48:38.527Z,70.30
2023-03-24T15:51:07.198Z,70.20
2023-03-24T15:53:41.492Z,71.40
2023-03-24T15:56:19.880Z,70.60
2023-03-24T15:58:54.831Z,71.60
2023-03-24T16:01:36.211Z,71.30
2023-03-24T16:04:11.457Z,70.70
2023-03-24T16:06:39.301Z,71.30
2023-03-24T16:09:10.314Z,72.60
2023-03-24T16:11:36.674Z,72.80
2023-03-24T16:14:39.562Z,71.90
2023-03-24T16:17:06.803Z,72.30
2023-03-24T16:19:33.159Z,71.60
2023-03-24T16:21:59.477Z,71.70
2023-03-24T16:24:25.804Z,72.00
2023-03-24T16:26:52.274Z,72.10
2023-03-24T16:29:21.328Z,72.30
2023-03-24T16:31:49.567Z,72.10
2023-03-24T16:34:18.198Z,72.90
2023-03-24T16:36:48.438Z,73.40
2023-03-24T16:39:22.444Z,74.10
2023-03-24T16:41:48.786Z,74.00
2023-03-24T16:44:17.139Z,74.70
2023-03-24T16:46:46.573Z,74.80
2023-03-24T16:49:15.627Z,75.30
2023-03-24T16:51:43.614Z,75.30
2023-03-24T16:54:09.913Z,75.30
2023-03-24T16:56:37.508Z,75.40
2023-03-24T16:59:04.497Z,75.90
2023-03-24T17:01:36.603Z,75.40
2023-03-24T17:04:14.064Z,75.80
2023-03-24T17:06:42.705Z,75.80
2023-03-24T17:09:09.910Z,76.70
2023-03-24T17:11:39.838Z,76.50
2023-03-24T17:14:09.437Z,76.70
2023-03-24T17:16:36.545Z,76.50
2023-03-24T17:19:04.267Z,76.90
2023-03-24T17:21:31.607Z,76.30
2023-03-24T17:23:57.748Z,76.70
2023-03-24T17:26:25.211Z,76.60
2023-03-24T17:28:51.906Z,75.90
2023-03-24T17:31:20.483Z,76.00
2023-03-24T17:33:47.163Z,76.50
2023-03-24T17:36:15.466Z,76.20
2023-03-24T17:38:43.586Z,75.90
2023-03-24T17:41:10.429Z,76.00
2023-03-24T17:43:36.617Z,75.90
2023-03-24T17:46:03.193Z,75.80
2023-03-24T17:48:29.922Z,76.50
2023-03-24T17:50:56.391Z,77.80
2023-03-24T17:53:26.666Z,81.00
2023-03-24T17:55:57.219Z,88.40
2023-03-24T17:58:24.465Z,91.00
2023-03-24T18:00:51.248Z,92.10
2023-03-24T18:03:17.942Z,93.20
2023-03-24T18:05:44.940Z,93.30
2023-03-24T18:08:11.837Z,93.70
2023-03-24T18:10:38.159Z,94.10
2023-03-24T18:13:05.658Z,94.10
2023-03-24T18:15:32.900Z,94.00
2023-03-24T18:17:59.623Z,93.80
2023-03-24T18:20:26.875Z,93.30
2023-03-24T18:22:53.627Z,93.20
2023-03-24T18:25:21.332Z,93.20
2023-03-24T18:27:48.105Z,92.90
2023-03-24T18:30:17.051Z,92.80
2023-03-24T18:32:43.634Z,92.90
2023-03-24T18:35:15.262Z,93.00
2023-03-24T18:37:41.760Z,93.10
2023-03-24T18:40:09.372Z,93.40
2023-03-24T18:42:36.846Z,93.80
2023-03-24T18:45:07.244Z,93.50
2023-03-24T18:47:34.640Z,93.60
2023-03-24T18:50:00.985Z,94.00
2023-03-24T18:52:27.485Z,94.30
2023-03-24T18:54:53.676Z,95.30
2023-03-24T18:57:21.372Z,95.60
2023-03-24T18:59:48.202Z,95.50
2023-03-24T19:02:15.969Z,96.40
2023-03-24T19:04:43.456Z,96.30
2023-03-24T19:07:14.567Z,96.40
2023-03-24T19:09:41.933Z,97.10
2023-03-24T19:12:09.024Z,97.70
2023-03-24T19:14:38.548Z,98.50
2023-03-24T19:17:06.342Z,98.40
2023-03-24T19:19:33.408Z,98.90
2023-03-24T19:22:00.434Z,99.20
2023-03-24T19:24:28.552Z,99.50
2023-03-24T19:26:57.674Z,99.70
2023-03-24T19:29:25.030Z,99.90
2023-03-24T19:31:52.016Z,99.90
2023-03-24T19:34:24.142Z,99.90
2023-03-24T19:36:51.765Z,99.90
2023-03-24T19:39:18.067Z,99.90
2023-03-24T19:41:44.743Z,99.90
2023-03-24T19:44:13.363Z,99.90
2023-03-24T19:46:41.233Z,99.90
2023-03-24T19:49:08.334Z,99.90
2023-03-24T19:51:35.244Z,99.90
2023-03-24T19:54:03.394Z,99.90
2023-03-24T19:56:31.418Z,99.90
2023-03-24T19:58:58.425Z,99.90
2023-03-24T20:01:25.040Z,99.90
2023-03-24T20:03:51.528Z,99.90
2023-03-24T20:06:19.908Z,99.90
2023-03-24T20:08:47.040Z,99.90
2023-03-24T20:11:13.626Z,99.90
2023-03-24T20:13:41.002Z,99.90
2023-03-24T20:16:07.495Z,99.90
2023-03-24T20:18:39.822Z,99.90
2023-03-24T20:21:07.854Z,99.90
2023-03-24T20:23:34.054Z,99.90
2023-03-24T20:26:01.798Z,99.90
2023-03-24T20:28:28.667Z,99.90
2023-03-24T20:31:05.774Z,99.90
2023-03-24T20:33:33.110Z,99.90
2023-03-24T20:36:04.419Z,99.90
2023-03-24T20:38:31.923Z,99.90
2023-03-24T20:41:07.914Z,99.90
2023-03-24T20:43:38.168Z,99.90
2023-03-24T20:46:06.963Z,99.90
2023-03-24T20:48:36.934Z,99.90
2023-03-24T20:51:06.924Z,99.90
2023-03-24T20:53:35.984Z,99.90
2023-03-24T20:56:07.970Z,99.90
2023-03-24T20:58:37.994Z,99.90
2023-03-24T21:01:09.581Z,99.90
2023-03-24T21:03:39.489Z,99.90
2023-03-24T21:06:10.199Z,99.90
2023-03-24T21:08:37.384Z,99.90
2023-03-24T21:11:06.454Z,99.90
2023-03-24T21:13:37.861Z,99.90
2023-03-24T21:16:10.144Z,99.90
2023-03-24T21:18:37.320Z,99.90
2023-03-24T21:21:11.723Z,99.90
2023-03-24T21:23:39.696Z,99.90
2023-03-24T21:26:08.614Z,99.90
2023-03-24T21:28:35.199Z,99.90
2023-03-24T21:31:24.736Z,99.90
2023-03-24T21:33:53.622Z,99.90
2023-03-24T21:36:20.324Z,99.90
2023-03-24T21:38:53.980Z,99.90
2023-03-24T21:41:21.376Z,99.90
2023-03-24T21:43:53.341Z,99.90
2023-03-24T21:46:21.086Z,99.90
2023-03-24T21:48:51.837Z,99.30
2023-03-24T21:51:21.158Z,98.80
2023-03-24T21:53:47.893Z,98.20
2023-03-24T21:56:14.380Z,97.30
2023-03-24T21:58:41.202Z,97.20
2023-03-24T22:01:08.345Z,96.50
2023-03-24T22:03:37.274Z,95.90
2023-03-24T22:06:04.974Z,95.70
2023-03-24T22:08:32.238Z,95.70
2023-03-24T22:11:04.384Z,95.10
2023-03-24T22:13:34.526Z,94.90
2023-03-24T22:16:02.447Z,95.10
2023-03-24T22:18:31.027Z,94.90
2023-03-24T22:21:03.756Z,94.90
2023-03-24T22:23:32.941Z,95.00
2023-03-24T22:26:03.678Z,95.10
2023-03-24T22:28:30.674Z,95.40
2023-03-24T22:31:31.828Z,95.00
2023-03-24T22:33:58.207Z,94.90
2023-03-24T22:36:27.775Z,94.90
2023-03-24T22:38:54.417Z,94.90
2023-03-24T22:41:21.082Z,95.00
2023-03-24T22:43:47.232Z,95.00
2023-03-24T22:46:13.869Z,95.00
2023-03-24T22:48:40.033Z,94.70
2023-03-24T22:51:08.206Z,94.80
2023-03-24T22:53:35.601Z,95.20
2023-03-24T22:56:02.339Z,95.00
2023-03-24T22:58:28.823Z,94.60
2023-03-24T23:00:56.230Z,94.60
2023-03-24T23:03:22.490Z,94.60
2023-03-24T23:05:49.077Z,94.50
2023-03-24T23:08:15.735Z,94.80
2023-03-24T23:10:43.632Z,94.90
2023-03-24T23:13:11.134Z,94.80
2023-03-24T23:15:41.686Z,94.80
2023-03-24T23:18:09.030Z,94.90
2023-03-24T23:20:35.984Z,95.10
2023-03-24T23:23:03.342Z,95.10
2023-03-24T23:25:31.912Z,95.50
2023-03-24T23:27:58.399Z,95.60
2023-03-24T23:30:24.625Z,95.50
2023-03-24T23:32:50.828Z,95.60
2023-03-24T23:35:17.331Z,95.80
2023-03-24T23:37:44.366Z,95.90
2023-03-24T23:40:13.071Z,95.90
2023-03-24T23:42:47.747Z,96.20
2023-03-24T23:45:19.131Z,96.30
2023-03-24T23:47:47.556Z,96.30
2023-03-24T23:50:17.026Z,96.50
2023-03-24T23:52:43.371Z,96.30
2023-03-24T23:55:11.241Z,96.30
2023-03-24T23:57:41.549Z,96.40
